Time;durP1;ratioP1;P1;durP2;ratioP2;P2;SDS_P1;SDS_P2;PMS_P1;PMS_P2;Temp;Humidity;BMP_temperature;BMP_pressure;BME280_temperature;BME280_humidity;BME280_pressure;Samples;Min_cycle;Max_cycle;Signal;HPM_P1;HPM_P2
2022/05/04 00:01:37;;;;;;;4.90;2.78;;;18.90;99.90;;;;;;5038129;28;20039;-67
2022/05/04 00:04:06;;;;;;;6.28;2.20;;;19.10;99.90;;;;;;5044180;28;20029;-66
2022/05/04 00:06:33;;;;;;;6.93;2.22;;;19.30;99.90;;;;;;5040591;28;20035;-69
2022/05/04 00:09:00;;;;;;;3.63;2.15;;;19.50;99.90;;;;;;5047256;28;20364;-68
2022/05/04 00:11:27;;;;;;;5.20;2.65;;;19.60;99.90;;;;;;5039948;28;20105;-69
2022/05/04 00:13:54;;;;;;;7.45;2.80;;;19.70;99.90;;;;;;5042625;28;20017;-71
2022/05/04 00:16:21;;;;;;;6.45;3.60;;;19.80;99.90;;;;;;5042105;28;20033;-71
2022/05/04 00:18:48;;;;;;;3.35;1.92;;;20.00;99.90;;;;;;5044936;28;20096;-74
2022/05/04 00:21:15;;;;;;;3.38;1.73;;;20.10;99.90;;;;;;5040958;28;20037;-70
2022/05/04 00:23:42;;;;;;;4.75;1.75;;;20.30;99.90;;;;;;4348367;28;9999918;-69
2022/05/04 00:26:09;;;;;;;4.32;2.45;;;20.40;99.90;;;;;;5053067;28;20079;-68
2022/05/04 00:28:36;;;;;;;3.25;1.50;;;20.60;99.90;;;;;;5041787;28;20013;-67
2022/05/04 00:31:03;;;;;;;3.47;1.80;;;20.80;99.90;;;;;;5050899;28;20047;-67
2022/05/04 00:33:30;;;;;;;2.88;1.80;;;20.90;99.90;;;;;;5043919;28;20013;-66
2022/05/04 00:35:57;;;;;;;3.25;1.70;;;21.10;99.90;;;;;;5042347;28;20156;-69
2022/05/04 00:38:23;;;;;;;2.97;1.50;;;21.30;99.90;;;;;;5031254;28;20140;-70
2022/05/04 00:40:50;;;;;;;2.70;1.02;;;21.50;99.90;;;;;;5049791;28;20039;-69
2022/05/04 00:43:25;;;;;;;3.88;1.70;;;21.70;99.90;;;;;;5045751;28;20497;-66
2022/05/04 00:45:52;;;;;;;3.80;1.60;;;21.80;99.90;;;;;;5044191;28;20024;-67
2022/05/04 00:48:20;;;;;;;2.55;1.60;;;21.80;99.90;;;;;;5043214;28;20021;-68
2022/05/04 00:50:49;;;;;;;2.95;1.48;;;21.80;99.90;;;;;;5046290;28;20029;-68
2022/05/04 00:53:19;;;;;;;2.47;1.52;;;21.90;99.90;;;;;;5044927;28;20047;-69
2022/05/04 00:55:46;;;;;;;5.05;1.42;;;22.10;99.90;;;;;;5047266;28;20437;-71
2022/05/04 01:01:02;;;;;;;3.83;1.60;;;22.60;99.90;;;;;;5044295;28;20054;-66
2022/05/04 01:03:29;;;;;;;4.20;2.25;;;22.70;99.90;;;;;;5043155;28;20029;-67
2022/05/04 01:05:56;;;;;;;26.10;5.75;;;22.80;99.90;;;;;;5042334;28;20032;-75
2022/05/04 01:08:23;;;;;;;9.02;2.17;;;23.10;99.90;;;;;;5041792;28;20067;-73
2022/05/04 01:10:50;;;;;;;8.55;2.08;;;23.10;99.90;;;;;;5042002;28;20032;-67
2022/05/04 01:13:21;;;;;;;7.15;1.95;;;23.30;99.90;;;;;;5050105;28;20021;-67
2022/05/04 01:15:49;;;;;;;6.13;1.90;;;23.40;99.90;;;;;;5034915;28;20025;-73
2022/05/04 01:18:17;;;;;;;4.82;1.38;;;23.60;99.90;;;;;;5040539;28;20017;-73
2022/05/04 01:20:44;;;;;;;8.48;2.63;;;23.70;99.90;;;;;;5042477;28;20027;-66
2022/05/04 01:23:11;;;;;;;3.90;1.85;;;24.00;99.90;;;;;;5051109;28;20039;-75
2022/05/04 01:25:38;;;;;;;8.18;1.50;;;24.10;99.90;;;;;;5043219;28;20064;-67
2022/05/04 01:28:06;;;;;;;8.32;2.05;;;24.30;99.90;;;;;;5038819;28;20033;-74
2022/05/04 01:30:35;;;;;;;6.90;2.03;;;24.30;99.90;;;;;;5042484;28;20106;-68
2022/05/04 01:33:02;;;;;;;2.80;1.13;;;24.30;99.90;;;;;;5045713;28;20043;-73
2022/05/04 01:35:30;;;;;;;1.60;0.80;;;24.60;99.90;;;;;;5036338;28;20446;-65
2022/05/04 01:37:57;;;;;;;2.22;1.00;;;24.70;99.90;;;;;;5038741;28;20080;-65
2022/05/04 01:40:24;;;;;;;6.93;1.30;;;24.80;99.90;;;;;;5025294;28;20017;-64
2022/05/04 01:42:51;;;;;;;3.13;1.33;;;25.00;99.90;;;;;;5042815;28;20025;-74
2022/05/04 01:45:18;;;;;;;2.10;0.90;;;25.20;99.90;;;;;;5040787;28;20021;-73
2022/05/04 01:47:51;;;;;;;6.47;1.40;;;25.20;99.90;;;;;;5037353;28;20029;-73
2022/05/04 01:50:18;;;;;;;4.38;1.48;;;25.30;99.90;;;;;;5041493;28;20017;-66
2022/05/04 01:52:46;;;;;;;2.17;1.08;;;25.50;99.90;;;;;;5034647;28;20380;-73
2022/05/04 01:55:14;;;;;;;3.88;1.20;;;25.40;99.60;;;;;;5044507;28;20078;-66
2022/05/04 01:57:42;;;;;;;3.30;1.05;;;25.40;99.60;;;;;;5038221;28;20040;-68
2022/05/04 02:00:10;;;;;;;2.75;1.00;;;25.50;99.30;;;;;;5044395;28;20095;-64
2022/05/04 02:02:37;;;;;;;18.80;2.95;;;25.70;99.10;;;;;;5044026;28;20112;-66
2022/05/04 02:05:05;;;;;;;5.85;1.10;;;25.80;99.80;;;;;;5047988;28;20020;-65
2022/05/04 02:07:35;;;;;;;4.70;1.30;;;26.00;99.30;;;;;;5040784;28;20040;-71
2022/05/04 02:10:04;;;;;;;2.83;1.10;;;26.10;99.20;;;;;;5043371;28;20017;-64
2022/05/04 02:12:31;;;;;;;1.42;0.95;;;26.00;98.70;;;;;;5042927;28;20071;-72
2022/05/04 02:14:58;;;;;;;2.13;1.27;;;26.10;98.90;;;;;;5040293;28;20483;-71
2022/05/04 02:17:25;;;;;;;3.88;1.30;;;26.20;98.10;;;;;;5039507;28;20041;-71
2022/05/04 02:19:52;;;;;;;4.35;1.08;;;26.20;98.00;;;;;;5031363;28;20029;-69
2022/05/04 02:22:19;;;;;;;4.70;1.42;;;26.30;97.70;;;;;;5036843;28;20033;-72
2022/05/04 02:24:46;;;;;;;3.92;1.17;;;26.40;97.80;;;;;;5036317;28;20498;-72
2022/05/04 02:27:13;;;;;;;2.50;1.35;;;26.50;97.80;;;;;;5041745;28;20587;-67
2022/05/04 02:29:41;;;;;;;7.05;1.23;;;26.50;97.50;;;;;;5034264;28;20451;-66
2022/05/04 02:32:08;;;;;;;2.97;1.00;;;26.70;97.30;;;;;;5037283;28;20025;-68
2022/05/04 02:37:54;;;;;;;2.33;0.90;;;26.90;96.90;;;;;;5031440;28;20583;-70
2022/05/04 02:40:07;;;;;;;4.15;1.42;;;27.00;95.50;;;;;;5031758;28;20473;-68
2022/05/04 02:42:34;;;;;;;1.35;1.02;;;27.10;95.20;;;;;;5041405;28;20470;-70
2022/05/04 02:45:01;;;;;;;4.10;0.70;;;27.30;95.40;;;;;;5037495;28;20025;-67
2022/05/04 02:47:28;;;;;;;3.78;1.08;;;27.40;94.70;;;;;;5046600;28;20035;-68
2022/05/04 02:49:55;;;;;;;2.28;0.80;;;27.40;94.80;;;;;;5047460;28;20029;-70
2022/05/04 02:52:22;;;;;;;3.00;1.00;;;27.30;94.40;;;;;;5037495;28;20017;-68
2022/05/04 02:54:49;;;;;;;2.75;1.00;;;27.40;94.40;;;;;;5039240;28;20021;-70
2022/05/04 02:57:16;;;;;;;1.52;1.05;;;27.40;94.60;;;;;;5034289;28;20043;-69
2022/05/04 02:59:43;;;;;;;2.10;0.85;;;27.50;93.70;;;;;;5040217;28;20339;-69
2022/05/04 03:02:28;;;;;;;1.92;0.90;;;27.50;93.70;;;;;;5035787;28;20040;-69
2022/05/04 03:05:06;;;;;;;3.63;1.23;;;27.60;94.00;;;;;;5035279;28;20025;-70
2022/05/04 03:07:34;;;;;;;3.38;1.17;;;27.80;94.10;;;;;;5036442;28;20021;-68
2022/05/04 03:10:01;;;;;;;1.83;1.00;;;27.70;94.00;;;;;;5046451;28;20029;-70
2022/05/04 03:12:28;;;;;;;7.53;1.20;;;27.90;94.10;;;;;;5041125;28;20068;-73
2022/05/04 03:14:55;;;;;;;3.75;0.93;;;28.00;93.50;;;;;;5040972;28;20035;-72
2022/05/04 03:17:22;;;;;;;1.50;1.10;;;28.20;94.00;;;;;;5036429;28;20679;-69
2022/05/04 03:19:50;;;;;;;1.92;1.00;;;28.10;93.80;;;;;;5020937;28;20128;-69
2022/05/04 03:22:17;;;;;;;1.52;0.95;;;28.00;93.60;;;;;;5038232;28;20507;-71
2022/05/04 03:24:44;;;;;;;2.60;1.02;;;27.80;93.80;;;;;;5047475;28;20102;-73
2022/05/04 03:27:11;;;;;;;6.18;1.40;;;27.90;93.90;;;;;;5042074;28;20029;-70
2022/05/04 03:29:38;;;;;;;3.35;1.05;;;28.10;93.60;;;;;;5035342;28;20044;-73
2022/05/04 03:32:06;;;;;;;3.08;1.17;;;28.30;92.80;;;;;;5041116;28;20025;-72
2022/05/04 03:34:33;;;;;;;1.25;0.90;;;28.50;92.90;;;;;;5042458;28;20075;-69
2022/05/04 03:37:00;;;;;;;1.88;0.80;;;28.50;92.20;;;;;;5039470;28;20049;-69
2022/05/04 03:39:28;;;;;;;2.70;0.75;;;28.40;92.30;;;;;;5036326;28;20403;-72
2022/05/04 03:41:55;;;;;;;1.58;0.95;;;28.10;91.70;;;;;;5040540;28;20028;-71
2022/05/04 03:44:22;;;;;;;2.80;1.05;;;27.50;91.20;;;;;;5038367;28;20088;-72
2022/05/04 03:46:50;;;;;;;3.40;1.10;;;27.10;92.30;;;;;;5045194;28;20036;-70
2022/05/04 03:49:20;;;;;;;1.08;0.73;;;26.80;93.40;;;;;;5037852;28;20136;-73
2022/05/04 03:51:47;;;;;;;1.13;0.82;;;26.40;93.80;;;;;;5035645;28;20029;-70
2022/05/04 03:54:15;;;;;;;1.33;0.82;;;26.60;94.30;;;;;;5040898;28;20021;-73
2022/05/04 03:56:42;;;;;;;1.38;0.70;;;26.60;93.60;;;;;;5043293;28;20517;-68
2022/05/04 03:59:09;;;;;;;1.83;1.05;;;26.80;93.70;;;;;;5040556;28;20025;-70
2022/05/04 04:01:36;;;;;;;2.65;1.00;;;27.00;94.10;;;;;;5039831;28;20035;-68
2022/05/04 04:04:03;;;;;;;1.67;1.38;;;27.40;93.60;;;;;;5034209;28;20032;-70
2022/05/04 04:06:32;;;;;;;3.97;3.58;;;27.80;93.80;;;;;;5042499;28;20470;-69
2022/05/04 04:08:59;;;;;;;1.95;1.25;;;28.00;92.90;;;;;;5038680;28;20025;-69
2022/05/04 04:11:26;;;;;;;1.52;1.00;;;28.30;92.80;;;;;;5036167;28;20025;-69
2022/05/04 04:13:53;;;;;;;1.67;1.00;;;28.60;90.70;;;;;;5040898;28;20154;-68
2022/05/04 04:16:20;;;;;;;2.22;1.30;;;28.60;91.10;;;;;;5042008;28;20032;-69
2022/05/04 04:18:47;;;;;;;3.33;1.83;;;28.60;91.30;;;;;;5026554;28;20039;-69
2022/05/04 04:24:00;;;;;;;4.55;1.48;;;28.50;91.00;;;;;;5037676;28;20088;-68
2022/05/04 04:26:27;;;;;;;10.07;6.85;;;28.40;91.80;;;;;;5037789;28;20021;-67
2022/05/04 04:28:54;;;;;;;2.30;1.35;;;28.50;91.40;;;;;;5040731;28;20021;-70
2022/05/04 04:31:21;;;;;;;6.10;2.17;;;28.60;91.20;;;;;;5036319;28;20116;-69
2022/05/04 04:33:48;;;;;;;3.72;1.40;;;28.30;90.80;;;;;;5040511;28;20026;-70
2022/05/04 04:36:16;;;;;;;4.50;1.60;;;27.90;91.60;;;;;;5035780;28;20235;-71
2022/05/04 04:38:43;;;;;;;3.63;1.45;;;27.70;91.60;;;;;;5038173;28;20068;-71
2022/05/04 04:41:10;;;;;;;1.30;0.93;;;27.60;92.30;;;;;;5033530;28;20064;-71
2022/05/04 04:43:37;;;;;;;3.53;1.27;;;27.90;91.70;;;;;;5039565;28;20104;-71
2022/05/04 04:46:04;;;;;;;4.15;1.80;;;28.10;92.00;;;;;;5034974;28;20131;-68
2022/05/04 04:48:31;;;;;;;4.50;1.70;;;28.40;91.20;;;;;;5036587;28;20107;-70
2022/05/04 04:50:58;;;;;;;3.72;2.08;;;28.70;90.10;;;;;;5034129;28;20039;-69
2022/05/04 04:53:25;;;;;;;2.70;1.73;;;28.80;90.10;;;;;;5035289;28;20027;-69
2022/05/04 04:55:52;;;;;;;3.53;1.95;;;28.80;88.70;;;;;;5035723;28;20041;-71
2022/05/04 04:58:19;;;;;;;4.75;1.70;;;28.40;88.60;;;;;;5018916;28;20473;-70
2022/05/04 05:00:46;;;;;;;3.95;2.13;;;28.30;90.20;;;;;;5018929;28;20376;-70
2022/05/04 05:03:14;;;;;;;8.35;2.13;;;27.90;90.30;;;;;;5032666;28;20480;-70
2022/05/04 05:05:45;;;;;;;3.88;1.67;;;27.60;91.40;;;;;;5032662;28;20037;-70
2022/05/04 05:08:13;;;;;;;2.40;1.05;;;27.50;92.10;;;;;;5033372;28;20018;-68
2022/05/04 05:10:40;;;;;;;1.52;1.20;;;27.50;92.00;;;;;;5035360;28;20032;-69
2022/05/04 05:13:08;;;;;;;2.72;1.50;;;27.50;90.50;;;;;;5016548;28;20017;-68
2022/05/04 05:18:21;;;;;;;2.47;1.65;;;27.20;91.20;;;;;;5032797;28;20070;-71
2022/05/04 05:20:48;;;;;;;10.95;8.52;;;27.00;92.10;;;;;;5030937;28;20029;-69
2022/05/04 05:23:16;;;;;;;2.20;1.40;;;26.80;92.70;;;;;;5037179;28;20411;-66
2022/05/04 05:25:42;;;;;;;2.03;1.55;;;26.80;91.70;;;;;;5034417;28;20436;-72
2022/05/04 05:28:09;;;;;;;7.35;6.50;;;26.80;92.30;;;;;;5033537;28;20383;-74
2022/05/04 05:30:36;;;;;;;7.00;4.43;;;27.00;91.90;;;;;;5036596;28;21718;-73
2022/05/04 05:33:03;;;;;;;2.08;1.67;;;27.00;92.20;;;;;;5036015;28;20028;-68
2022/05/04 05:35:30;;;;;;;1.83;1.15;;;27.30;91.40;;;;;;5032774;28;20025;-67
2022/05/04 05:37:58;;;;;;;2.08;1.30;;;27.30;91.70;;;;;;5031446;28;20056;-69
2022/05/04 05:40:25;;;;;;;22.50;2.70;;;27.40;92.30;;;;;;5032717;28;20028;-75
2022/05/04 05:42:52;;;;;;;17.38;2.78;;;28.00;91.60;;;;;;5038015;28;20022;-74
2022/05/04 05:45:19;;;;;;;5.25;1.35;;;28.30;90.90;;;;;;5033211;28;20326;-68
2022/05/04 05:47:45;;;;;;;3.55;1.58;;;28.70;90.00;;;;;;5036904;28;20518;-70
2022/05/04 05:50:12;;;;;;;2.58;1.00;;;29.10;90.70;;;;;;5033990;28;20121;-75
2022/05/04 05:52:39;;;;;;;2.13;1.02;;;29.30;88.40;;;;;;5037989;28;20021;-70
2022/05/04 05:55:07;;;;;;;1.23;1.00;;;29.40;89.20;;;;;;5036834;28;20625;-69
2022/05/04 05:57:35;;;;;;;2.58;1.60;;;29.10;90.10;;;;;;5042741;28;20368;-73
2022/05/04 06:00:02;;;;;;;6.07;4.20;;;28.60;90.00;;;;;;5033832;28;20468;-67
2022/05/04 06:02:30;;;;;;;4.45;3.70;;;27.90;91.40;;;;;;5016935;28;20458;-68
2022/05/04 06:04:57;;;;;;;2.30;1.58;;;27.30;92.00;;;;;;5036584;28;20080;-70
2022/05/04 06:07:24;;;;;;;3.17;1.85;;;26.70;93.60;;;;;;5042657;28;20075;-69
2022/05/04 06:09:52;;;;;;;2.25;1.17;;;26.20;93.60;;;;;;5035781;28;20025;-69
2022/05/04 06:12:19;;;;;;;3.67;1.50;;;25.70;93.50;;;;;;5035806;28;20082;-70
2022/05/04 06:14:45;;;;;;;4.57;1.42;;;25.90;94.30;;;;;;5038844;28;20538;-74
2022/05/04 06:17:13;;;;;;;2.83;1.35;;;26.60;94.60;;;;;;5040482;28;20380;-71
2022/05/04 06:19:40;;;;;;;2.75;1.27;;;27.30;93.20;;;;;;5025309;28;20120;-70
2022/05/04 06:22:07;;;;;;;2.35;1.27;;;27.30;94.00;;;;;;5044632;28;20036;-68
2022/05/04 06:24:34;;;;;;;3.40;1.80;;;27.30;94.00;;;;;;5048680;28;20029;-73
2022/05/04 06:27:01;;;;;;;1.63;1.20;;;27.10;93.40;;;;;;5043057;28;20025;-70
2022/05/04 06:35:18;;;;;;;4.32;1.40;;;26.00;95.90;;;;;;4946559;28;20044;-67
2022/05/04 06:37:45;;;;;;;3.35;1.70;;;25.80;95.40;;;;;;4950453;28;20331;-68
2022/05/04 06:40:12;;;;;;;2.65;1.50;;;25.60;96.70;;;;;;4951304;28;20548;-68
2022/05/04 06:42:39;;;;;;;2.55;1.50;;;25.30;97.10;;;;;;4948117;28;20046;-69
2022/05/04 06:45:07;;;;;;;5.38;2.72;;;25.20;98.50;;;;;;4949604;28;20478;-68
2022/05/04 06:47:34;;;;;;;5.55;1.95;;;25.30;98.40;;;;;;4949410;28;20427;-67
2022/05/04 06:50:03;;;;;;;4.47;2.28;;;25.40;98.20;;;;;;4952553;28;20041;-67
2022/05/04 06:52:40;;;;;;;4.72;2.05;;;25.00;98.80;;;;;;4947566;29;20059;-69
2022/05/04 06:55:07;;;;;;;4.47;2.17;;;24.50;99.90;;;;;;4950129;28;20813;-69
2022/05/04 06:57:38;;;;;;;8.20;2.35;;;24.00;99.90;;;;;;4949035;28;20081;-69
2022/05/04 07:00:07;;;;;;;3.65;2.15;;;23.60;99.90;;;;;;4948260;28;20348;-68
2022/05/04 07:02:35;;;;;;;4.45;1.60;;;23.40;99.90;;;;;;4947895;28;20062;-68
2022/05/04 07:05:03;;;;;;;5.43;2.20;;;23.30;99.90;;;;;;4949495;28;20039;-69
2022/05/04 07:07:29;;;;;;;5.40;2.50;;;23.10;99.90;;;;;;4948697;28;20036;-68
2022/05/04 07:09:58;;;;;;;2.47;1.90;;;22.90;99.90;;;;;;4984288;28;20038;-69
2022/05/04 07:12:25;;;;;;;3.67;1.70;;;22.70;99.90;;;;;;5050526;28;20056;-66
2022/05/04 07:14:55;;;;;;;4.38;1.80;;;22.40;99.90;;;;;;5040214;28;20034;-70
2022/05/04 07:17:23;;;;;;;2.25;1.45;;;22.30;99.90;;;;;;5033517;28;20067;-68
2022/05/04 07:19:50;;;;;;;2.92;1.67;;;22.00;99.90;;;;;;5041844;28;20032;-75
2022/05/04 07:22:17;;;;;;;3.67;2.05;;;21.80;99.90;;;;;;5043110;28;20028;-70
2022/05/04 07:24:44;;;;;;;4.10;1.70;;;21.80;99.90;;;;;;5041800;28;20480;-68
2022/05/04 07:27:11;;;;;;;3.15;1.77;;;21.70;99.90;;;;;;5039346;28;20599;-69
2022/05/04 07:29:38;;;;;;;4.43;1.88;;;21.60;99.90;;;;;;5039580;28;20021;-66
2022/05/04 07:32:06;;;;;;;4.40;2.55;;;21.60;99.90;;;;;;5026263;28;20849;-69
2022/05/04 07:34:33;;;;;;;6.63;2.42;;;21.50;99.90;;;;;;5043187;28;20021;-67
2022/05/04 07:37:00;;;;;;;3.13;1.67;;;21.40;99.90;;;;;;5040875;28;20090;-73
2022/05/04 07:42:21;;;;;;;6.00;1.98;;;21.10;99.90;;;;;;5042206;28;20118;-73
2022/05/04 07:44:50;;;;;;;9.18;2.20;;;21.10;99.90;;;;;;5042131;28;20025;-68
2022/05/04 07:47:18;;;;;;;6.45;2.25;;;21.10;99.90;;;;;;5042523;28;20200;-68
2022/05/04 07:49:45;;;;;;;3.65;1.67;;;21.00;99.90;;;;;;5042479;28;20075;-68
2022/05/04 07:52:12;;;;;;;7.65;2.20;;;21.00;99.90;;;;;;5041422;28;20061;-68
2022/05/04 07:54:39;;;;;;;5.80;2.38;;;20.90;99.90;;;;;;5041900;28;20033;-67
2022/05/04 07:57:08;;;;;;;5.03;2.45;;;20.80;99.90;;;;;;5042326;28;20525;-69
2022/05/04 07:59:35;;;;;;;4.78;2.33;;;20.80;99.90;;;;;;5042604;28;20445;-69
2022/05/04 08:04:58;;;;;;;4.97;2.30;;;20.80;99.90;;;;;;4977032;28;20390;-68
2022/05/04 08:07:25;;;;;;;5.22;2.00;;;20.90;99.90;;;;;;4981189;28;20034;-73
2022/05/04 08:09:52;;;;;;;8.02;2.22;;;20.80;99.90;;;;;;4981077;28;20049;-68
2022/05/04 08:12:19;;;;;;;4.63;2.08;;;20.80;99.90;;;;;;4977814;28;20362;-64
2022/05/04 08:14:46;;;;;;;7.00;2.50;;;20.80;99.90;;;;;;4978986;28;20046;-65
2022/05/04 08:17:13;;;;;;;8.48;2.38;;;20.90;99.90;;;;;;4979093;28;20034;-64
2022/05/04 08:19:40;;;;;;;7.80;2.45;;;20.90;99.90;;;;;;4978029;28;20076;-63
2022/05/04 08:22:12;;;;;;;8.23;2.33;;;20.90;99.90;;;;;;4978541;28;20194;-66
2022/05/04 08:24:39;;;;;;;7.65;2.50;;;20.90;99.90;;;;;;4963769;28;20110;-64
2022/05/04 08:27:06;;;;;;;7.20;2.88;;;20.90;99.90;;;;;;4976972;28;20040;-70
2022/05/04 08:29:33;;;;;;;7.90;2.45;;;21.00;99.90;;;;;;4976396;28;20509;-68
2022/05/04 08:32:00;;;;;;;6.30;2.33;;;21.10;99.90;;;;;;4975741;28;20034;-64
2022/05/04 08:34:28;;;;;;;4.47;2.50;;;20.90;99.90;;;;;;4977305;28;20026;-67
2022/05/04 08:36:55;;;;;;;8.20;2.53;;;20.70;99.90;;;;;;4975586;28;20034;-63
2022/05/04 08:39:22;;;;;;;4.38;2.75;;;20.60;99.90;;;;;;4974167;28;20042;-68
2022/05/04 08:41:49;;;;;;;7.07;2.72;;;20.60;99.90;;;;;;5014947;28;20091;-72
2022/05/04 08:44:16;;;;;;;8.35;3.67;;;20.60;99.90;;;;;;5038470;28;20037;-65
2022/05/04 08:46:44;;;;;;;6.55;3.00;;;20.60;99.90;;;;;;5040039;28;20475;-67
2022/05/04 08:49:12;;;;;;;6.45;2.83;;;20.70;99.90;;;;;;5039019;28;20044;-71
2022/05/04 08:51:40;;;;;;;6.90;3.40;;;20.60;99.90;;;;;;5038350;28;20025;-67
2022/05/04 08:54:09;;;;;;;6.68;2.90;;;20.60;99.90;;;;;;5038460;28;20036;-69
2022/05/04 08:56:36;;;;;;;8.98;3.40;;;20.60;99.90;;;;;;5039708;28;20025;-64
2022/05/04 08:59:04;;;;;;;3.70;2.70;;;20.80;99.90;;;;;;5040118;28;20116;-68
2022/05/04 09:01:39;;;;;;;7.65;2.85;;;20.90;99.90;;;;;;5038898;28;20488;-70
2022/05/04 09:04:06;;;;;;;7.35;2.85;;;20.90;99.90;;;;;;5040157;28;20040;-70
2022/05/04 09:06:37;;;;;;;4.93;2.55;;;20.80;99.90;;;;;;5040802;28;20117;-70
2022/05/04 09:09:14;;;;;;;6.10;3.28;;;20.70;99.90;;;;;;5041976;28;20026;-65
2022/05/04 09:11:44;;;;;;;8.10;2.72;;;20.60;99.90;;;;;;5039628;28;20029;-68
2022/05/04 09:14:25;;;;;;;7.53;4.22;;;20.60;99.90;;;;;;5039401;28;20020;-64
2022/05/04 09:16:53;;;;;;;6.47;2.95;;;20.70;99.90;;;;;;5040393;28;20033;-71
2022/05/04 09:19:21;;;;;;;10.13;3.63;;;20.60;99.90;;;;;;5040854;28;20462;-68
2022/05/04 09:21:48;;;;;;;6.10;3.72;;;20.50;99.90;;;;;;5049158;28;20087;-69
2022/05/04 09:24:25;;;;;;;8.48;3.78;;;20.30;99.90;;;;;;5049102;28;20346;-68
2022/05/04 09:26:56;;;;;;;10.48;3.45;;;20.30;99.90;;;;;;5038799;28;20529;-69
2022/05/04 09:29:34;;;;;;;7.18;3.10;;;20.20;99.90;;;;;;5039158;28;20119;-69
2022/05/04 09:32:11;;;;;;;5.90;3.03;;;20.00;99.90;;;;;;5040081;28;20480;-66
2022/05/04 09:34:38;;;;;;;6.78;2.65;;;20.00;99.90;;;;;;5038881;28;20031;-68
2022/05/04 09:45:41;;;;;;;7.18;2.90;;;19.60;99.90;;;;;;4975938;28;20048;-68
2022/05/04 09:48:12;;;;;;;5.85;2.47;;;19.40;99.90;;;;;;4976074;28;21352;-68
2022/05/04 09:50:40;;;;;;;9.82;3.42;;;19.20;99.90;;;;;;4976095;28;20034;-64
2022/05/04 09:53:07;;;;;;;9.15;3.45;;;19.10;99.90;;;;;;4977500;28;20030;-63
2022/05/04 09:55:36;;;;;;;8.10;3.50;;;19.20;99.90;;;;;;4977047;28;20026;-69
2022/05/04 09:58:03;;;;;;;6.75;3.65;;;19.30;99.90;;;;;;4975563;28;20463;-66
2022/05/04 10:00:30;;;;;;;10.60;3.65;;;19.30;99.90;;;;;;4976632;28;20058;-68
2022/05/04 10:02:57;;;;;;;6.25;3.05;;;19.30;99.90;;;;;;4977953;28;20493;-66
2022/05/04 10:05:26;;;;;;;6.90;3.60;;;19.20;99.90;;;;;;4975697;28;20297;-67
2022/05/04 10:07:53;;;;;;;8.38;3.42;;;19.20;99.90;;;;;;4977075;28;20042;-66
2022/05/04 10:10:21;;;;;;;7.28;3.60;;;19.40;99.90;;;;;;4975889;28;20205;-69
2022/05/04 10:12:49;;;;;;;6.68;3.28;;;19.50;99.90;;;;;;4974726;28;20113;-67
2022/05/04 10:15:18;;;;;;;6.53;3.25;;;19.50;99.90;;;;;;4978092;28;20042;-66
2022/05/04 10:17:56;;;;;;;6.20;3.08;;;19.40;99.90;;;;;;4974143;28;20038;-66
2022/05/04 10:20:30;;;;;;;7.50;3.53;;;19.30;99.90;;;;;;5017579;28;20434;-69
2022/05/04 10:23:08;;;;;;;6.90;3.00;;;19.30;99.90;;;;;;5037077;28;20277;-65
2022/05/04 10:25:36;;;;;;;6.07;3.70;;;19.30;99.90;;;;;;5038894;28;20092;-65
2022/05/04 10:28:14;;;;;;;6.75;2.95;;;19.40;99.90;;;;;;5037765;28;20487;-67
2022/05/04 10:31:08;;;;;;;8.57;3.08;;;19.40;99.90;;;;;;5038213;28;20048;-66
2022/05/04 10:33:37;;;;;;;8.93;3.35;;;19.40;99.90;;;;;;5034896;28;20041;-65
2022/05/04 10:36:15;;;;;;;4.60;2.85;;;19.40;99.90;;;;;;5039352;28;20493;-64
2022/05/04 10:38:52;;;;;;;9.52;3.65;;;19.30;99.90;;;;;;5042512;22;20064;-64
2022/05/04 10:41:40;;;;;;;4.88;3.63;;;19.30;99.90;;;;;;5037757;28;20028;-68
2022/05/04 10:44:11;;;;;;;8.35;3.42;;;19.40;99.90;;;;;;5042570;28;20021;-66
2022/05/04 10:46:40;;;;;;;7.45;3.55;;;19.40;99.90;;;;;;5034001;28;20742;-69
2022/05/04 10:49:13;;;;;;;7.03;3.60;;;19.40;99.90;;;;;;5035912;28;20037;-68
2022/05/04 10:51:42;;;;;;;7.60;4.60;;;19.40;99.90;;;;;;5031084;28;20056;-68
2022/05/04 10:54:11;;;;;;;7.20;3.50;;;19.30;99.90;;;;;;5038674;28;20021;-68
2022/05/04 10:56:47;;;;;;;6.18;3.83;;;19.20;99.90;;;;;;5034980;28;20063;-70
2022/05/04 10:59:25;;;;;;;7.03;3.90;;;19.10;99.90;;;;;;5031389;28;20527;-69
2022/05/04 11:02:08;;;;;;;6.80;3.65;;;19.10;99.90;;;;;;5038436;28;20361;-70
2022/05/04 11:04:36;;;;;;;6.30;3.90;;;19.10;99.90;;;;;;5035698;28;20021;-70
2022/05/04 11:07:07;;;;;;;7.53;4.32;;;19.10;99.90;;;;;;5040592;28;20446;-71
2022/05/04 11:09:38;;;;;;;8.30;4.13;;;19.00;99.90;;;;;;5034299;28;20418;-66
2022/05/04 11:12:07;;;;;;;7.30;3.60;;;19.00;99.90;;;;;;5044173;28;20487;-71
2022/05/04 11:14:35;;;;;;;8.27;3.85;;;19.00;99.90;;;;;;5046309;28;20423;-67
2022/05/04 11:17:08;;;;;;;6.65;4.15;;;19.00;99.90;;;;;;5037875;28;20095;-71
2022/05/04 11:19:35;;;;;;;7.65;3.97;;;19.10;99.90;;;;;;5043115;28;20387;-66
2022/05/04 11:22:02;;;;;;;8.18;3.75;;;19.20;99.90;;;;;;5043467;28;20028;-70
2022/05/04 11:24:30;;;;;;;5.47;3.90;;;19.10;99.90;;;;;;5029082;28;20025;-73
2022/05/04 11:26:57;;;;;;;7.75;3.33;;;19.00;99.90;;;;;;5041014;28;20479;-67
2022/05/04 11:29:26;;;;;;;8.45;3.58;;;18.90;99.90;;;;;;5031028;28;20041;-70
2022/05/04 11:31:59;;;;;;;8.25;4.20;;;18.90;99.90;;;;;;5040736;28;20025;-72
2022/05/04 11:34:29;;;;;;;7.65;3.17;;;18.90;99.90;;;;;;5038828;28;20028;-67
2022/05/04 11:36:58;;;;;;;6.28;3.78;;;18.90;99.90;;;;;;5037118;28;20041;-67
2022/05/04 11:39:28;;;;;;;6.35;3.63;;;18.80;99.90;;;;;;5019227;28;20450;-72
2022/05/04 11:41:56;;;;;;;6.75;3.80;;;18.80;99.90;;;;;;5037120;28;20047;-72
2022/05/04 11:44:25;;;;;;;6.25;3.60;;;18.70;99.90;;;;;;5040031;28;20119;-67
2022/05/04 11:46:57;;;;;;;8.60;3.58;;;18.70;99.90;;;;;;5043180;28;20108;-67
2022/05/04 11:49:27;;;;;;;8.15;3.65;;;18.70;99.90;;;;;;5045166;28;20104;-71
2022/05/04 11:51:55;;;;;;;6.13;3.88;;;18.70;99.90;;;;;;5037624;28;20025;-67
2022/05/04 11:54:23;;;;;;;9.90;3.77;;;18.70;99.90;;;;;;4694759;28;9999911;-70
2022/05/04 11:56:50;;;;;;;7.05;3.40;;;18.70;99.90;;;;;;5040054;28;20910;-68
2022/05/04 11:59:17;;;;;;;4.40;3.47;;;18.70;99.90;;;;;;5040408;28;20032;-71
2022/05/04 12:01:46;;;;;;;7.43;3.55;;;18.60;99.90;;;;;;5043252;28;20209;-70
2022/05/04 12:04:14;;;;;;;7.47;3.42;;;18.50;99.90;;;;;;5043943;28;20078;-67
2022/05/04 12:06:43;;;;;;;5.38;3.65;;;18.50;99.90;;;;;;5044171;28;20071;-68
2022/05/04 12:09:12;;;;;;;6.60;4.18;;;18.40;99.90;;;;;;5046284;28;20018;-70
2022/05/04 12:11:40;;;;;;;9.18;4.38;;;18.50;99.90;;;;;;5046266;28;20064;-69
2022/05/04 12:14:06;;;;;;;7.72;3.70;;;18.50;99.90;;;;;;5045687;28;20048;-68
2022/05/04 12:16:37;;;;;;;6.93;3.70;;;18.40;99.90;;;;;;5038595;28;20410;-68
2022/05/04 12:19:04;;;;;;;7.63;4.13;;;18.40;99.90;;;;;;5042159;28;20032;-68
2022/05/04 12:21:31;;;;;;;7.03;4.35;;;18.30;99.90;;;;;;5038115;28;20104;-66
2022/05/04 12:24:00;;;;;;;7.45;3.90;;;18.30;99.90;;;;;;5046499;28;20048;-66
2022/05/04 12:26:27;;;;;;;5.78;4.03;;;18.30;99.90;;;;;;5046554;28;20029;-69
2022/05/04 12:34:31;;;;;;;6.82;3.83;;;18.20;99.90;;;;;;5040776;28;20438;-68
2022/05/04 12:37:02;;;;;;;8.38;4.53;;;18.20;99.90;;;;;;5044068;28;20036;-68
2022/05/04 12:39:29;;;;;;;5.30;4.22;;;18.30;99.90;;;;;;5045957;28;20029;-68
2022/05/04 12:41:57;;;;;;;10.13;4.72;;;18.30;99.90;;;;;;5043314;28;20131;-69
2022/05/04 12:44:25;;;;;;;9.63;4.78;;;18.20;99.90;;;;;;5034723;28;20456;-69
2022/05/04 12:46:57;;;;;;;7.80;4.32;;;18.20;99.90;;;;;;5048295;28;20032;-67
2022/05/04 12:49:25;;;;;;;7.30;4.88;;;18.20;99.90;;;;;;5034682;28;20089;-70
2022/05/04 12:51:54;;;;;;;6.30;4.25;;;18.20;99.90;;;;;;5047794;28;20043;-68
2022/05/04 12:54:21;;;;;;;7.88;5.05;;;18.20;99.90;;;;;;5020216;28;20127;-66
2022/05/04 12:56:50;;;;;;;9.75;5.38;;;18.10;99.90;;;;;;5045415;28;20131;-68
2022/05/04 12:59:18;;;;;;;8.15;5.22;;;18.00;99.90;;;;;;5038718;28;20025;-69
2022/05/04 13:01:45;;;;;;;6.47;4.45;;;18.00;99.90;;;;;;5051244;28;20079;-69
2022/05/04 13:04:17;;;;;;;7.45;4.47;;;18.00;99.90;;;;;;5022960;28;20499;-68
2022/05/04 13:06:45;;;;;;;7.63;4.90;;;17.90;99.90;;;;;;5046939;28;20037;-66
2022/05/04 13:09:12;;;;;;;9.52;5.18;;;17.80;99.90;;;;;;5037405;28;20454;-68
2022/05/04 13:11:41;;;;;;;7.13;5.75;;;17.80;99.90;;;;;;5042097;28;20059;-66
2022/05/04 13:14:08;;;;;;;7.63;4.55;;;17.70;99.90;;;;;;5048697;28;20021;-66
2022/05/04 13:16:36;;;;;;;8.10;5.28;;;17.70;99.90;;;;;;5046491;28;20028;-67
2022/05/04 13:19:06;;;;;;;8.15;5.53;;;17.70;99.90;;;;;;5041035;28;20056;-69
2022/05/04 13:21:33;;;;;;;7.97;4.75;;;17.70;99.90;;;;;;5039391;28;20021;-67
2022/05/04 13:24:00;;;;;;;6.93;4.55;;;17.80;99.90;;;;;;5043241;28;20032;-66
2022/05/04 13:26:27;;;;;;;6.80;4.25;;;17.70;99.90;;;;;;5034615;28;20032;-68
2022/05/04 13:28:55;;;;;;;8.30;4.43;;;17.70;99.90;;;;;;5046155;28;20033;-67